Time;durP1;ratioP1;P1;durP2;ratioP2;P2;SDS_P1;SDS_P2;PMS_P1;PMS_P2;Temp;Humidity;BMP_temperature;BMP_pressure;BME280_temperature;BME280_humidity;BME280_pressure;Samples;Min_cycle;Max_cycle;Signal;HPM_P1;HPM_P2
2021/09/12 00:01:29;;;;;;;115.25;50.75;;;16.50;99.90;;;;;;5012143;28;20045;-82
2021/09/12 00:03:57;;;;;;;133.48;54.28;;;16.60;99.90;;;;;;5012354;28;20123;-82
2021/09/12 00:06:24;;;;;;;113.53;49.28;;;16.60;99.90;;;;;;5010833;28;20049;-82
2021/09/12 00:08:51;;;;;;;120.07;50.97;;;16.60;99.90;;;;;;4996273;28;20053;-82
2021/09/12 00:11:17;;;;;;;128.52;54.00;;;16.60;99.90;;;;;;4994684;28;20448;-82
2021/09/12 00:13:44;;;;;;;155.45;59.95;;;16.70;99.90;;;;;;5044566;28;20067;-83
2021/09/12 00:16:11;;;;;;;166.27;60.08;;;16.60;99.90;;;;;;5011168;28;20056;-82
2021/09/12 00:18:38;;;;;;;156.07;57.05;;;16.50;99.90;;;;;;5010799;28;20304;-82
2021/09/12 00:21:05;;;;;;;179.35;63.22;;;16.50;99.90;;;;;;5010839;28;20037;-82
2021/09/12 00:23:32;;;;;;;168.13;61.10;;;16.50;99.90;;;;;;4999147;28;20049;-82
2021/09/12 00:25:59;;;;;;;183.15;61.53;;;16.50;99.90;;;;;;5003653;28;20041;-83
2021/09/12 00:28:26;;;;;;;179.65;62.88;;;16.50;99.90;;;;;;5025388;28;20061;-82
2021/09/12 00:30:53;;;;;;;169.02;60.92;;;16.50;99.90;;;;;;5025318;28;20041;-82
2021/09/12 00:33:20;;;;;;;181.93;62.53;;;16.50;99.90;;;;;;5009605;28;20049;-82
2021/09/12 00:35:46;;;;;;;181.10;61.03;;;16.60;99.90;;;;;;5025714;28;20689;-81
2021/09/12 00:38:13;;;;;;;176.35;59.40;;;16.50;99.90;;;;;;5010908;28;20045;-83
2021/09/12 00:40:40;;;;;;;185.77;60.63;;;16.60;99.90;;;;;;5026918;28;20049;-83
2021/09/12 00:43:07;;;;;;;186.77;58.83;;;16.60;99.90;;;;;;5019287;28;20053;-83
2021/09/12 00:45:34;;;;;;;193.38;58.70;;;16.60;99.90;;;;;;5034323;28;20041;-82
2021/09/12 00:48:02;;;;;;;186.52;59.78;;;16.60;99.90;;;;;;5009338;28;20466;-81
2021/09/12 00:50:29;;;;;;;194.15;58.00;;;16.60;99.90;;;;;;5008927;28;20053;-81
2021/09/12 00:53:01;;;;;;;175.98;56.00;;;16.70;99.90;;;;;;5009362;28;20064;-80
2021/09/12 00:55:29;;;;;;;199.75;59.40;;;16.70;99.90;;;;;;5009145;28;20061;-80
2021/09/12 00:57:59;;;;;;;209.15;62.30;;;16.50;99.90;;;;;;5025327;28;20064;-79
2021/09/12 01:00:26;;;;;;;219.18;62.70;;;16.60;99.90;;;;;;5010331;28;20541;-82
2021/09/12 01:02:53;;;;;;;220.25;61.22;;;16.60;99.90;;;;;;5021055;28;20049;-82
2021/09/12 01:05:21;;;;;;;219.55;63.88;;;16.60;99.90;;;;;;5028858;28;20110;-81
2021/09/12 01:07:48;;;;;;;192.85;60.17;;;16.60;99.90;;;;;;5013566;28;20049;-82
2021/09/12 01:10:15;;;;;;;208.40;60.10;;;16.60;99.90;;;;;;5028978;28;20083;-82
2021/09/12 01:12:42;;;;;;;216.43;62.40;;;16.60;99.90;;;;;;4994492;28;20052;-82
2021/09/12 01:15:09;;;;;;;212.10;61.90;;;16.60;99.90;;;;;;5009173;28;20045;-82
2021/09/12 01:17:36;;;;;;;230.40;63.75;;;16.60;99.90;;;;;;5026342;28;20045;-81
2021/09/12 01:20:04;;;;;;;230.68;63.22;;;16.60;99.90;;;;;;5025549;28;20050;-82
2021/09/12 01:22:30;;;;;;;243.63;65.38;;;16.60;99.90;;;;;;5026334;28;20518;-80
2021/09/12 01:24:57;;;;;;;258.88;67.18;;;16.60;99.90;;;;;;5009473;28;20060;-81
2021/09/12 01:27:24;;;;;;;293.88;70.72;;;16.50;99.90;;;;;;5008384;28;20123;-81
2021/09/12 01:29:51;;;;;;;252.90;67.90;;;16.50;99.90;;;;;;4998343;28;20041;-81
2021/09/12 01:32:18;;;;;;;261.02;67.22;;;16.50;99.90;;;;;;5022998;28;20301;-81
2021/09/12 01:34:47;;;;;;;272.52;66.63;;;16.50;99.90;;;;;;5009105;28;20053;-81
2021/09/12 01:37:13;;;;;;;253.57;67.20;;;16.50;99.90;;;;;;5027439;28;20045;-80
2021/09/12 01:39:40;;;;;;;256.67;66.50;;;16.50;99.90;;;;;;5028635;28;20042;-81
2021/09/12 01:42:07;;;;;;;224.52;65.88;;;16.50;99.90;;;;;;5026533;28;20059;-82
2021/09/12 01:44:34;;;;;;;228.73;63.25;;;16.50;99.90;;;;;;5025703;28;20084;-82
2021/09/12 01:47:01;;;;;;;212.38;63.05;;;16.60;99.90;;;;;;5024613;28;20461;-80
2021/09/12 01:49:29;;;;;;;222.48;62.50;;;16.40;99.90;;;;;;4993517;28;20064;-81
2021/09/12 01:51:55;;;;;;;207.82;60.47;;;16.40;99.90;;;;;;5025451;28;20042;-81
2021/09/12 01:54:22;;;;;;;211.40;60.33;;;16.50;99.90;;;;;;5010265;28;20057;-81
2021/09/12 01:56:49;;;;;;;209.02;62.45;;;16.50;99.90;;;;;;5025000;28;20045;-80
2021/09/12 01:59:16;;;;;;;221.00;62.03;;;16.60;99.90;;;;;;5009818;28;20057;-81
2021/09/12 02:01:43;;;;;;;223.35;63.63;;;16.50;99.90;;;;;;5010594;28;20046;-83
2021/09/12 02:04:10;;;;;;;204.65;62.40;;;16.60;99.90;;;;;;5028533;28;20061;-82
2021/09/12 02:06:37;;;;;;;212.40;62.47;;;16.50;99.90;;;;;;4997092;28;20053;-83
2021/09/12 02:09:04;;;;;;;200.13;63.10;;;16.50;99.90;;;;;;4997933;28;20042;-84
2021/09/12 02:11:31;;;;;;;227.80;63.90;;;16.50;99.90;;;;;;5006593;28;20061;-82
2021/09/12 02:13:58;;;;;;;203.10;62.15;;;16.50;99.90;;;;;;5030158;28;20046;-82
2021/09/12 02:16:25;;;;;;;195.93;61.13;;;16.50;99.90;;;;;;5027825;28;20091;-83
2021/09/12 02:18:52;;;;;;;193.27;60.20;;;16.50;99.90;;;;;;5011140;28;20114;-82
2021/09/12 02:21:19;;;;;;;168.23;57.88;;;16.60;99.90;;;;;;5024525;28;20041;-82
2021/09/12 02:23:46;;;;;;;177.23;56.28;;;16.60;99.90;;;;;;5011617;28;20038;-83
2021/09/12 02:26:13;;;;;;;186.05;62.47;;;16.60;99.90;;;;;;5009939;28;20042;-83
2021/09/12 02:28:40;;;;;;;176.75;60.65;;;16.60;99.90;;;;;;5009661;28;20489;-82
2021/09/12 02:31:07;;;;;;;190.05;60.58;;;16.60;99.90;;;;;;5026703;28;20113;-82
2021/09/12 02:33:34;;;;;;;205.80;61.13;;;16.70;99.90;;;;;;5028369;28;20141;-81
2021/09/12 02:36:02;;;;;;;212.32;63.97;;;16.60;99.90;;;;;;5025357;28;20042;-82
2021/09/12 02:38:30;;;;;;;200.77;63.15;;;16.70;99.90;;;;;;5010417;28;20140;-82
2021/09/12 02:40:59;;;;;;;216.98;63.75;;;16.70;99.90;;;;;;5025964;28;20041;-82
2021/09/12 02:43:27;;;;;;;216.25;63.97;;;16.70;99.90;;;;;;5009625;28;20049;-81
2021/09/12 02:45:54;;;;;;;213.98;63.63;;;16.70;99.90;;;;;;5007636;28;20049;-83
2021/09/12 02:48:21;;;;;;;200.73;62.65;;;16.70;99.90;;;;;;5008919;28;20072;-82
2021/09/12 02:50:48;;;;;;;203.32;60.95;;;16.60;99.90;;;;;;5008241;28;20041;-82
2021/09/12 02:53:15;;;;;;;200.57;62.17;;;16.50;99.90;;;;;;5009810;28;20049;-81
2021/09/12 02:55:41;;;;;;;191.63;60.60;;;16.60;99.90;;;;;;5009518;28;20049;-82
2021/09/12 02:58:08;;;;;;;192.50;60.63;;;16.60;99.90;;;;;;4993214;28;20049;-84
2021/09/12 03:00:35;;;;;;;193.75;62.55;;;16.50;99.90;;;;;;5005906;28;20048;-84
2021/09/12 03:03:02;;;;;;;202.52;63.67;;;16.60;99.90;;;;;;5009483;28;20092;-81
2021/09/12 03:05:30;;;;;;;208.65;63.58;;;16.60;99.90;;;;;;4991479;28;20053;-82
2021/09/12 03:07:56;;;;;;;187.55;60.75;;;16.60;99.90;;;;;;5008657;28;20577;-81
2021/09/12 03:10:23;;;;;;;204.48;63.53;;;16.50;99.90;;;;;;4994193;28;20053;-80
2021/09/12 03:12:50;;;;;;;196.55;63.55;;;16.50;99.90;;;;;;5007643;28;20049;-81
2021/09/12 03:15:18;;;;;;;191.00;59.90;;;16.50;99.90;;;;;;5006122;28;20047;-82
2021/09/12 03:17:44;;;;;;;166.23;57.10;;;16.40;99.90;;;;;;5008288;28;20395;-80
2021/09/12 03:20:12;;;;;;;161.40;57.78;;;16.40;99.90;;;;;;5024068;28;20528;-82
2021/09/12 03:22:39;;;;;;;161.32;55.67;;;16.40;99.90;;;;;;5029363;28;20080;-78
2021/09/12 03:25:06;;;;;;;147.15;53.05;;;16.40;99.90;;;;;;4995054;28;20056;-79
2021/09/12 03:27:33;;;;;;;152.45;53.20;;;16.30;99.90;;;;;;5010864;28;20479;-80
2021/09/12 03:30:00;;;;;;;148.38;52.83;;;16.30;99.90;;;;;;4995142;28;20049;-80
2021/09/12 03:32:27;;;;;;;148.77;52.30;;;16.30;99.90;;;;;;4995216;28;20050;-80
2021/09/12 03:34:54;;;;;;;138.38;49.50;;;16.30;99.90;;;;;;5012752;28;20072;-81
2021/09/12 03:37:20;;;;;;;123.07;47.08;;;16.30;99.90;;;;;;5044965;28;20120;-81
2021/09/12 03:39:47;;;;;;;126.47;47.90;;;16.30;99.90;;;;;;5013208;28;20049;-82
2021/09/12 03:42:14;;;;;;;119.90;47.00;;;16.30;99.90;;;;;;5028845;28;20052;-81
2021/09/12 03:44:41;;;;;;;112.70;43.83;;;16.40;99.90;;;;;;5019217;28;20042;-82
2021/09/12 03:47:08;;;;;;;102.50;42.25;;;16.40;99.90;;;;;;5016629;28;20522;-82
2021/09/12 03:49:35;;;;;;;121.68;44.20;;;16.30;99.90;;;;;;4991421;28;20049;-83
2021/09/12 03:52:02;;;;;;;107.25;42.78;;;16.30;99.90;;;;;;5002343;28;20052;-82
2021/09/12 03:54:29;;;;;;;106.97;40.85;;;16.40;99.90;;;;;;5020603;28;20575;-83
2021/09/12 03:56:55;;;;;;;112.75;43.53;;;16.40;99.90;;;;;;5021549;28;20522;-81
2021/09/12 03:59:22;;;;;;;109.90;42.42;;;16.40;99.90;;;;;;5044313;28;20060;-80
2021/09/12 04:01:49;;;;;;;113.65;42.05;;;16.40;99.90;;;;;;5027510;28;20053;-81
2021/09/12 04:04:16;;;;;;;94.45;38.03;;;16.40;99.90;;;;;;5011487;28;20044;-80
2021/09/12 04:06:43;;;;;;;98.53;40.80;;;16.40;99.90;;;;;;5012142;28;20581;-80
2021/09/12 04:09:10;;;;;;;99.60;39.65;;;16.30;99.90;;;;;;4992914;28;20133;-80
2021/09/12 04:11:36;;;;;;;101.85;39.22;;;16.30;99.90;;;;;;5021457;28;20530;-82
2021/09/12 04:14:03;;;;;;;98.20;39.85;;;16.20;99.90;;;;;;5055448;28;20105;-79
2021/09/12 04:16:30;;;;;;;84.55;37.05;;;16.30;99.90;;;;;;5025948;28;20069;-80
2021/09/12 04:18:57;;;;;;;88.97;37.65;;;16.20;99.90;;;;;;5017998;28;20077;-81
2021/09/12 04:21:24;;;;;;;87.75;36.00;;;16.30;99.90;;;;;;5016229;28;20482;-81
2021/09/12 04:23:51;;;;;;;90.10;36.83;;;16.20;99.90;;;;;;5005302;28;20056;-81
2021/09/12 04:26:18;;;;;;;93.93;37.35;;;16.30;99.90;;;;;;5005092;28;20048;-79
2021/09/12 04:28:45;;;;;;;94.03;38.50;;;16.20;99.90;;;;;;5016492;28;20050;-80
2021/09/12 04:31:12;;;;;;;95.93;38.25;;;16.20;99.90;;;;;;5039573;28;20049;-81
2021/09/12 04:33:39;;;;;;;100.25;38.75;;;16.20;99.90;;;;;;5055019;28;20068;-80
2021/09/12 04:36:06;;;;;;;101.63;38.78;;;16.30;99.90;;;;;;5016622;28;20103;-81
2021/09/12 04:38:33;;;;;;;93.60;39.60;;;16.30;99.90;;;;;;5015406;28;20049;-80
2021/09/12 04:41:01;;;;;;;117.50;42.78;;;16.30;99.90;;;;;;5029953;28;20049;-81
2021/09/12 04:43:27;;;;;;;114.10;43.45;;;16.30;99.90;;;;;;5013778;28;20052;-80
2021/09/12 04:45:54;;;;;;;118.28;43.72;;;16.20;99.90;;;;;;5028631;28;20052;-80
2021/09/12 04:48:21;;;;;;;120.60;42.63;;;16.20;99.90;;;;;;5012926;28;20041;-80
2021/09/12 04:50:48;;;;;;;124.75;42.88;;;16.20;99.90;;;;;;4994295;28;20525;-80
2021/09/12 04:53:15;;;;;;;133.27;47.03;;;16.20;99.90;;;;;;5010198;28;20119;-80
2021/09/12 04:55:42;;;;;;;125.78;46.05;;;16.20;99.90;;;;;;5027096;28;20049;-80
2021/09/12 04:58:08;;;;;;;135.55;47.25;;;16.10;99.90;;;;;;4999290;28;20119;-80
2021/09/12 05:00:35;;;;;;;123.20;44.40;;;16.10;99.90;;;;;;5011487;28;20057;-80
2021/09/12 05:03:02;;;;;;;136.02;46.15;;;16.10;99.90;;;;;;5009896;28;20063;-79
2021/09/12 05:05:29;;;;;;;119.88;44.25;;;16.10;99.90;;;;;;5008887;28;20058;-79
2021/09/12 05:07:56;;;;;;;99.38;38.17;;;16.10;99.90;;;;;;5009452;28;20045;-79
2021/09/12 05:10:27;;;;;;;102.88;39.53;;;16.00;99.90;;;;;;5024966;28;20041;-80
2021/09/12 05:12:54;;;;;;;82.43;33.50;;;16.00;99.90;;;;;;5009762;28;20052;-81
2021/09/12 05:15:21;;;;;;;87.05;35.28;;;15.90;99.90;;;;;;5019004;28;20541;-83
2021/09/12 05:17:48;;;;;;;77.22;30.85;;;16.00;99.90;;;;;;5008993;28;20042;-80
2021/09/12 05:20:15;;;;;;;70.53;29.08;;;16.00;99.90;;;;;;5008803;28;20053;-81
2021/09/12 05:22:42;;;;;;;69.95;28.52;;;15.90;99.90;;;;;;5009255;28;20529;-82
2021/09/12 05:25:09;;;;;;;62.70;26.08;;;15.90;99.90;;;;;;5007760;28;20046;-81
2021/09/12 05:27:36;;;;;;;61.22;27.13;;;15.90;99.90;;;;;;5008954;28;20061;-81
2021/09/12 05:30:04;;;;;;;68.38;27.88;;;16.00;99.90;;;;;;5025059;28;20065;-81
2021/09/12 05:32:31;;;;;;;63.67;28.83;;;16.00;99.90;;;;;;5023944;28;20535;-81
2021/09/12 05:34:58;;;;;;;59.08;25.58;;;16.00;99.90;;;;;;4992433;28;20152;-81
2021/09/12 05:37:25;;;;;;;63.70;28.73;;;16.00;99.90;;;;;;5007500;28;20042;-81
2021/09/12 05:39:52;;;;;;;65.75;29.13;;;16.00;99.90;;;;;;5008833;28;20041;-81
2021/09/12 05:42:18;;;;;;;54.78;25.15;;;16.00;99.90;;;;;;5007901;28;20064;-80
2021/09/12 05:44:45;;;;;;;61.17;28.05;;;16.00;99.90;;;;;;5008239;28;20072;-81
2021/09/12 05:47:12;;;;;;;62.75;28.35;;;16.10;99.90;;;;;;5023308;28;20099;-81
2021/09/12 05:49:39;;;;;;;64.15;28.70;;;16.00;99.90;;;;;;4992762;28;20053;-81
2021/09/12 05:52:06;;;;;;;65.90;29.50;;;16.10;99.90;;;;;;4996095;28;20059;-81
2021/09/12 05:54:33;;;;;;;67.25;28.85;;;16.10;99.90;;;;;;5009535;28;20139;-81
2021/09/12 05:57:02;;;;;;;70.68;30.75;;;16.10;99.90;;;;;;4994397;28;20041;-81
2021/09/12 05:59:29;;;;;;;76.63;34.30;;;16.20;99.90;;;;;;4993356;28;20116;-81
2021/09/12 06:01:55;;;;;;;74.18;31.85;;;16.10;99.90;;;;;;5008369;28;20431;-81
2021/09/12 06:04:23;;;;;;;85.35;36.10;;;16.10;99.90;;;;;;5004542;28;20053;-81
2021/09/12 06:06:50;;;;;;;92.15;35.33;;;16.10;99.90;;;;;;5017577;28;20049;-82
2021/09/12 06:09:17;;;;;;;77.47;32.30;;;16.10;99.90;;;;;;4991884;28;20049;-81
2021/09/12 06:11:44;;;;;;;73.78;32.13;;;16.10;99.90;;;;;;4989653;28;20061;-81
2021/09/12 06:14:11;;;;;;;68.30;28.75;;;16.10;99.90;;;;;;5023769;28;20091;-81
2021/09/12 06:16:37;;;;;;;60.08;27.73;;;16.10;99.90;;;;;;5005939;28;20049;-81
2021/09/12 06:19:04;;;;;;;61.30;27.02;;;16.10;99.90;;;;;;5003911;28;20415;-81
2021/09/12 06:21:31;;;;;;;53.30;25.02;;;16.10;99.90;;;;;;5006175;28;20053;-80
2021/09/12 06:23:58;;;;;;;57.38;26.98;;;16.00;99.90;;;;;;5024106;28;20041;-80
2021/09/12 06:26:26;;;;;;;56.47;27.23;;;16.00;99.90;;;;;;5019426;28;20554;-80
2021/09/12 06:28:54;;;;;;;56.03;26.92;;;16.00;99.90;;;;;;5032020;28;20054;-79
2021/09/12 06:31:21;;;;;;;61.15;28.10;;;15.90;99.90;;;;;;5040084;28;20230;-81
2021/09/12 06:33:48;;;;;;;64.32;29.05;;;16.00;99.90;;;;;;5040559;28;20057;-82
2021/09/12 06:36:17;;;;;;;53.42;27.23;;;16.00;99.90;;;;;;5039959;28;20073;-80
2021/09/12 06:38:44;;;;;;;61.22;29.00;;;15.90;99.90;;;;;;5010372;28;20046;-79
2021/09/12 06:41:11;;;;;;;70.72;33.70;;;15.80;99.90;;;;;;5011704;28;20048;-80
2021/09/12 06:43:38;;;;;;;71.82;35.10;;;15.90;99.90;;;;;;5022893;28;20092;-80
2021/09/12 06:46:06;;;;;;;82.25;35.67;;;15.90;99.90;;;;;;5022371;28;20054;-78
2021/09/12 06:48:33;;;;;;;84.78;38.97;;;16.00;99.90;;;;;;5007739;28;20050;-82
2021/09/12 06:50:59;;;;;;;90.05;38.25;;;16.00;99.90;;;;;;5010296;28;20048;-82
2021/09/12 06:53:26;;;;;;;83.00;40.22;;;16.10;99.90;;;;;;5040294;28;20051;-82
2021/09/12 06:55:53;;;;;;;86.57;40.38;;;16.20;99.90;;;;;;5022042;28;20049;-82
2021/09/12 06:58:20;;;;;;;86.18;40.70;;;16.20;99.90;;;;;;5023237;28;20061;-82
2021/09/12 07:00:47;;;;;;;81.82;40.75;;;16.20;99.90;;;;;;5014840;28;20399;-80
2021/09/12 07:03:14;;;;;;;83.00;39.53;;;16.20;99.90;;;;;;5040143;28;20230;-81
2021/09/12 07:05:41;;;;;;;86.95;42.40;;;16.20;99.90;;;;;;5038974;28;20068;-82
2021/09/12 07:08:09;;;;;;;88.30;42.55;;;16.30;99.90;;;;;;5013666;28;20073;-82
2021/09/12 07:10:36;;;;;;;82.05;43.65;;;16.40;99.90;;;;;;5012444;28;20156;-81
2021/09/12 07:13:03;;;;;;;90.75;42.38;;;16.50;99.90;;;;;;5008000;28;20550;-79
2021/09/12 07:15:30;;;;;;;88.45;43.35;;;16.60;99.90;;;;;;5010524;28;20061;-81
2021/09/12 07:17:56;;;;;;;81.88;42.70;;;16.60;99.90;;;;;;5010820;28;20446;-80
2021/09/12 07:20:23;;;;;;;82.05;43.83;;;16.60;99.90;;;;;;5010672;28;20111;-79
2021/09/12 07:22:50;;;;;;;79.65;42.85;;;16.60;99.90;;;;;;5044534;28;20080;-80
2021/09/12 07:25:18;;;;;;;82.32;43.72;;;16.60;99.90;;;;;;5029957;28;20038;-80
2021/09/12 07:27:45;;;;;;;87.75;46.15;;;16.60;99.90;;;;;;5035765;28;20050;-80
2021/09/12 07:30:13;;;;;;;94.70;46.78;;;16.70;99.90;;;;;;4999076;28;20061;-81
2021/09/12 07:32:41;;;;;;;90.95;47.83;;;16.70;99.90;;;;;;5023633;28;20055;-82
2021/09/12 07:35:09;;;;;;;92.75;50.58;;;16.70;99.90;;;;;;4997025;28;20045;-82
2021/09/12 07:37:36;;;;;;;83.40;45.38;;;16.80;99.90;;;;;;5012242;28;20116;-83
2021/09/12 07:40:03;;;;;;;91.93;49.25;;;16.80;99.90;;;;;;5029207;28;20046;-82
2021/09/12 07:42:30;;;;;;;90.28;50.03;;;16.90;99.90;;;;;;5014780;28;20100;-82
2021/09/12 07:44:57;;;;;;;94.88;48.40;;;17.00;99.90;;;;;;5014173;28;20041;-82
2021/09/12 07:47:24;;;;;;;89.38;50.33;;;17.10;99.90;;;;;;5028826;28;20265;-82
2021/09/12 07:49:51;;;;;;;86.72;49.28;;;17.10;99.90;;;;;;5000053;28;20041;-82
2021/09/12 07:52:19;;;;;;;86.07;48.20;;;17.10;99.90;;;;;;5031534;28;20685;-83
2021/09/12 07:54:46;;;;;;;90.88;48.40;;;17.10;99.90;;;;;;5015219;28;20053;-83
2021/09/12 07:57:12;;;;;;;85.10;46.25;;;17.10;99.90;;;;;;5012982;28;20049;-82
2021/09/12 07:59:39;;;;;;;78.40;45.53;;;17.20;99.90;;;;;;5013653;28;20041;-81
2021/09/12 08:02:06;;;;;;;77.43;43.22;;;17.10;99.90;;;;;;5029201;28;20045;-81
2021/09/12 08:04:34;;;;;;;70.22;41.47;;;17.20;99.90;;;;;;5013650;28;20037;-80
2021/09/12 08:07:01;;;;;;;81.63;43.00;;;17.30;99.90;;;;;;5012120;28;20589;-81
2021/09/12 08:09:29;;;;;;;63.30;37.53;;;17.30;99.90;;;;;;5013479;28;20457;-80
2021/09/12 08:11:56;;;;;;;53.25;33.75;;;17.40;99.90;;;;;;5030453;28;20660;-80
2021/09/12 08:14:23;;;;;;;56.95;33.20;;;17.40;99.90;;;;;;5015942;28;20049;-81
2021/09/12 08:16:50;;;;;;;49.17;30.00;;;17.40;99.90;;;;;;5009843;28;20065;-80
2021/09/12 08:19:17;;;;;;;52.20;31.92;;;17.40;99.90;;;;;;5030851;28;20041;-79
2021/09/12 08:21:43;;;;;;;43.50;24.83;;;17.40;99.90;;;;;;5020998;28;20041;-80
2021/09/12 08:24:11;;;;;;;41.80;23.98;;;17.50;99.90;;;;;;5010268;28;20522;-79
2021/09/12 08:26:38;;;;;;;34.97;22.10;;;17.50;99.90;;;;;;5006532;28;20064;-79
2021/09/12 08:29:05;;;;;;;41.42;20.45;;;17.60;99.90;;;;;;5010895;28;20043;-80
2021/09/12 08:31:32;;;;;;;33.78;20.48;;;17.60;99.90;;;;;;5010859;28;20163;-81
2021/09/12 08:33:59;;;;;;;37.97;20.35;;;17.90;99.90;;;;;;5027255;28;20650;-83
2021/09/12 08:36:26;;;;;;;35.00;18.23;;;18.10;99.90;;;;;;5005852;28;20551;-83
2021/09/12 08:38:53;;;;;;;27.85;17.70;;;18.30;99.90;;;;;;5025263;28;20604;-82
2021/09/12 08:41:20;;;;;;;32.10;17.70;;;18.40;99.90;;;;;;5009372;28;20139;-81
2021/09/12 08:43:48;;;;;;;32.08;17.48;;;18.70;99.90;;;;;;5008648;28;20498;-81
2021/09/12 08:46:16;;;;;;;30.48;16.70;;;18.60;99.90;;;;;;4988642;28;20447;-83
2021/09/12 08:48:44;;;;;;;26.13;15.30;;;18.60;99.90;;;;;;4971278;28;20104;-81
2021/09/12 08:51:11;;;;;;;23.92;15.93;;;18.70;99.90;;;;;;4997172;28;20048;-80
2021/09/12 08:53:39;;;;;;;22.92;15.18;;;18.70;99.90;;;;;;5010117;28;20057;-82
2021/09/12 08:56:05;;;;;;;19.75;13.98;;;18.70;99.90;;;;;;5024694;28;20045;-83
2021/09/12 08:58:32;;;;;;;24.08;14.85;;;18.60;99.90;;;;;;5011822;28;20052;-82
2021/09/12 09:01:00;;;;;;;21.42;14.57;;;18.70;99.90;;;;;;5012421;28;20046;-80
2021/09/12 09:03:35;;;;;;;20.92;13.27;;;18.80;99.90;;;;;;5009951;28;20048;-81
2021/09/12 09:06:13;;;;;;;23.17;15.05;;;19.00;99.90;;;;;;4993202;28;20072;-81
2021/09/12 09:08:55;;;;;;;24.02;15.27;;;19.00;99.90;;;;;;4988339;28;20061;-84
2021/09/12 09:11:37;;;;;;;26.73;16.27;;;18.80;99.90;;;;;;5009481;28;20057;-82
2021/09/12 09:14:19;;;;;;;27.15;15.50;;;18.60;99.90;;;;;;5034794;28;20052;-84
2021/09/12 09:16:48;;;;;;;23.63;13.57;;;18.70;99.90;;;;;;5004960;28;20398;-83
2021/09/12 09:19:17;;;;;;;24.17;13.48;;;18.80;99.90;;;;;;5000765;28;20054;-82
2021/09/12 09:21:49;;;;;;;17.35;11.98;;;18.90;99.90;;;;;;4995858;28;20048;-83
2021/09/12 09:24:22;;;;;;;20.10;11.27;;;18.80;99.90;;;;;;5011476;28;20099;-82
2021/09/12 09:26:54;;;;;;;17.15;13.02;;;18.80;99.90;;;;;;5010869;28;20491;-85
2021/09/12 09:29:26;;;;;;;16.73;13.23;;;18.80;99.90;;;;;;5011391;28;20140;-84
2021/09/12 09:32:07;;;;;;;20.63;11.98;;;18.70;99.90;;;;;;4993632;28;20049;-84
2021/09/12 09:34:37;;;;;;;17.80;11.38;;;18.60;99.90;;;;;;5010275;28;20060;-82
2021/09/12 09:37:16;;;;;;;21.85;12.93;;;18.70;99.90;;;;;;5007808;28;20447;-84
2021/09/12 09:39:46;;;;;;;17.88;12.98;;;18.80;99.90;;;;;;5009289;28;20431;-82
2021/09/12 09:42:37;;;;;;;18.48;13.23;;;19.10;99.90;;;;;;4994249;28;20103;-82
2021/09/12 09:45:38;;;;;;;14.75;12.90;;;19.50;99.90;;;;;;5010377;28;20045;-84
2021/09/12 09:48:13;;;;;;;23.30;14.13;;;19.90;99.90;;;;;;5010887;28;20042;-82
2021/09/12 09:50:42;;;;;;;18.27;14.55;;;20.20;99.90;;;;;;4993860;28;20171;-85
2021/09/12 09:53:11;;;;;;;20.33;14.60;;;20.30;99.90;;;;;;5010765;28;20067;-82
2021/09/12 09:55:39;;;;;;;17.90;13.75;;;20.40;99.90;;;;;;5009842;28;20552;-82
2021/09/12 09:58:09;;;;;;;18.73;13.18;;;20.40;99.90;;;;;;5027136;28;20410;-84
2021/09/12 10:00:36;;;;;;;18.30;12.93;;;20.40;99.90;;;;;;4994571;28;20110;-83
2021/09/12 10:03:04;;;;;;;14.10;11.73;;;20.50;99.90;;;;;;4986226;28;20111;-82
2021/09/12 10:05:32;;;;;;;20.75;13.32;;;20.40;99.90;;;;;;5023193;28;20707;-82
2021/09/12 10:08:00;;;;;;;18.23;13.60;;;20.30;99.90;;;;;;5015952;28;20175;-83
2021/09/12 10:10:27;;;;;;;15.93;11.85;;;20.20;99.90;;;;;;5021415;28;20128;-81
2021/09/12 10:13:00;;;;;;;15.02;12.93;;;20.20;99.90;;;;;;5015003;28;20410;-83
2021/09/12 10:15:31;;;;;;;14.38;12.88;;;20.30;99.90;;;;;;5012053;28;20057;-84
2021/09/12 10:17:59;;;;;;;17.27;12.52;;;20.30;99.90;;;;;;5026846;28;20068;-82
2021/09/12 10:20:30;;;;;;;17.58;12.75;;;20.30;99.90;;;;;;5023719;28;20045;-83
2021/09/12 10:23:03;;;;;;;13.50;11.38;;;20.00;99.90;;;;;;4992121;28;20053;-83
2021/09/12 10:25:31;;;;;;;14.70;11.40;;;19.80;99.90;;;;;;5008011;28;20056;-82
2021/09/12 10:28:03;;;;;;;12.93;11.45;;;19.70;99.90;;;;;;5007994;28;20058;-83
2021/09/12 10:30:38;;;;;;;18.00;12.68;;;19.40;99.90;;;;;;5026658;28;20057;-84
2021/09/12 10:33:05;;;;;;;18.77;12.32;;;19.60;99.90;;;;;;5020902;28;20079;-83
2021/09/12 10:35:38;;;;;;;17.15;12.65;;;19.60;99.90;;;;;;5034722;28;20038;-81
2021/09/12 10:38:05;;;;;;;16.42;12.93;;;19.50;99.90;;;;;;4999473;28;20069;-82
2021/09/12 10:40:53;;;;;;;14.68;12.13;;;19.50;99.90;;;;;;5034160;28;20046;-81
2021/09/12 10:43:26;;;;;;;13.13;11.30;;;19.60;99.90;;;;;;5032989;28;20045;-80
2021/09/12 10:46:05;;;;;;;16.90;11.38;;;19.70;99.90;;;;;;5004415;28;20053;-84
2021/09/12 10:48:39;;;;;;;14.52;10.77;;;19.70;99.90;;;;;;5032449;28;20474;-82
2021/09/12 10:51:28;;;;;;;14.90;10.73;;;19.80;99.90;;;;;;5012855;28;20125;-81
2021/09/12 10:53:55;;;;;;;12.32;9.25;;;19.90;99.90;;;;;;5014248;28;20053;-80
2021/09/12 10:56:25;;;;;;;11.73;9.57;;;19.90;99.90;;;;;;4997445;28;20046;-81
2021/09/12 10:58:57;;;;;;;16.15;11.43;;;19.90;99.90;;;;;;5031214;28;20499;-81
2021/09/12 11:01:45;;;;;;;21.60;14.18;;;20.10;99.90;;;;;;5014161;28;20521;-82
2021/09/12 11:04:16;;;;;;;16.17;12.23;;;20.20;99.90;;;;;;5012603;28;20109;-80
2021/09/12 11:06:47;;;;;;;15.60;13.20;;;20.30;99.90;;;;;;5030333;28;20048;-82
2021/09/12 11:09:24;;;;;;;16.55;13.38;;;20.60;99.90;;;;;;5002729;28;20045;-81
2021/09/12 11:12:03;;;;;;;14.93;12.27;;;20.60;99.90;;;;;;5012685;28;20042;-81
2021/09/12 11:14:32;;;;;;;15.07;11.18;;;20.40;99.90;;;;;;4997206;28;20111;-82
2021/09/12 11:17:07;;;;;;;13.20;11.60;;;20.50;99.90;;;;;;5012083;28;20743;-80
2021/09/12 11:19:35;;;;;;;14.55;11.45;;;20.60;99.90;;;;;;4995820;28;20048;-80
2021/09/12 11:22:06;;;;;;;14.48;11.60;;;20.80;99.90;;;;;;5012909;28;20052;-82
2021/09/12 11:24:36;;;;;;;14.55;12.40;;;20.80;99.90;;;;;;4998315;28;20048;-82
2021/09/12 11:27:05;;;;;;;14.68;13.27;;;20.70;99.90;;;;;;5017256;28;20550;-83
2021/09/12 11:29:34;;;;;;;22.75;12.70;;;20.80;99.90;;;;;;4996160;28;20087;-80
2021/09/12 11:32:03;;;;;;;20.77;16.55;;;21.10;99.90;;;;;;5044663;28;20479;-81
2021/09/12 11:34:31;;;;;;;17.55;15.10;;;21.20;99.90;;;;;;5045423;28;20057;-81
2021/09/12 11:37:06;;;;;;;28.95;16.23;;;21.10;99.90;;;;;;5018790;28;20102;-82
2021/09/12 11:39:38;;;;;;;19.85;14.95;;;21.20;99.90;;;;;;5013773;28;20041;-82
2021/09/12 11:42:08;;;;;;;17.88;15.88;;;21.30;99.90;;;;;;5032279;28;20046;-85
2021/09/12 11:44:46;;;;;;;22.10;17.80;;;21.10;99.90;;;;;;5010271;28;20049;-81
2021/09/12 11:47:18;;;;;;;19.27;17.10;;;21.10;99.90;;;;;;5029339;28;20037;-83
2021/09/12 11:49:57;;;;;;;20.63;18.08;;;20.70;99.90;;;;;;4995933;28;20057;-82
2021/09/12 11:52:34;;;;;;;16.88;14.85;;;20.60;99.90;;;;;;4995329;28;20057;-82
2021/09/12 11:55:01;;;;;;;19.73;16.50;;;20.80;99.90;;;;;;4997116;28;20049;-82
2021/09/12 11:57:28;;;;;;;20.13;18.00;;;21.10;99.90;;;;;;4995000;28;20164;-83
2021/09/12 11:59:55;;;;;;;18.33;16.42;;;21.30;99.90;;;;;;4993945;28;20041;-81
2021/09/12 12:02:24;;;;;;;19.67;17.70;;;21.30;99.90;;;;;;4995184;28;20056;-82
2021/09/12 12:04:54;;;;;;;19.80;17.65;;;21.30;99.90;;;;;;4995440;28;20517;-82
2021/09/12 12:07:38;;;;;;;19.25;17.17;;;21.40;99.90;;;;;;4989964;28;20526;-80
2021/09/12 12:10:06;;;;;;;18.52;15.00;;;21.00;99.90;;;;;;5000001;28;20046;-80
2021/09/12 12:12:37;;;;;;;22.25;15.52;;;21.00;99.90;;;;;;5008095;28;20046;-82
2021/09/12 12:15:06;;;;;;;18.02;16.23;;;21.10;99.90;;;;;;4977861;28;20049;-82
2021/09/12 12:17:34;;;;;;;18.70;15.80;;;21.10;99.90;;;;;;5009850;28;20081;-81
2021/09/12 12:20:02;;;;;;;18.27;15.82;;;21.20;99.90;;;;;;4994454;28;20107;-83
2021/09/12 12:22:37;;;;;;;18.98;15.32;;;21.10;99.90;;;;;;5009766;28;20507;-83
2021/09/12 12:25:05;;;;;;;19.83;16.52;;;21.30;99.90;;;;;;5028009;28;20419;-81
2021/09/12 12:27:41;;;;;;;18.13;15.07;;;21.40;99.90;;;;;;5010028;28;20554;-81
2021/09/12 12:30:09;;;;;;;18.17;16.35;;;21.20;99.90;;;;;;5007891;28;20056;-80